Time;durP1;ratioP1;P1;durP2;ratioP2;P2;SDS_P1;SDS_P2;PMS_P1;PMS_P2;Temp;Humidity;BMP_temperature;BMP_pressure;BME280_temperature;BME280_humidity;BME280_pressure;Samples;Min_cycle;Max_cycle;Signal;HPM_P1;HPM_P2
2023/02/27 00:02:03;;;;;;;;;;;;;;;-1.98;74.58;96915.79;109087;1270;22505;-83
2023/02/27 00:04:33;;;;;;;;;;;;;;;-1.98;74.63;96924.84;109053;1270;22547;-83
2023/02/27 00:07:02;;;;;;;;;;;;;;;-1.97;74.61;96926.66;109126;1267;25417;-82
2023/02/27 00:09:31;;;;;;;;;;;;;;;-1.95;74.73;96928.80;109161;1270;23843;-82
2023/02/27 00:12:01;;;;;;;;;;;;;;;-1.92;75.03;96931.17;109086;1267;33881;-83
2023/02/27 00:14:31;;;;;;;;;;;;;;;-1.89;75.09;96931.49;109087;1267;22616;-83
2023/02/27 00:17:00;;;;;;;;;;;;;;;-1.89;75.02;96930.25;109092;1267;25319;-82
2023/02/27 00:19:30;;;;;;;;;;;;;;;-1.87;75.27;96937.06;109113;1267;22536;-83
2023/02/27 00:21:59;;;;;;;;;;;;;;;-1.86;75.16;96944.39;109071;1266;23071;-82
2023/02/27 00:24:29;;;;;;;;;;;;;;;-1.85;74.81;96950.22;109104;1273;22505;-83
2023/02/27 00:26:58;;;;;;;;;;;;;;;-1.84;74.68;96949.75;109099;1267;22535;-83
2023/02/27 00:29:27;;;;;;;;;;;;;;;-1.81;74.85;96951.62;109115;1273;22501;-83
2023/02/27 00:31:57;;;;;;;;;;;;;;;-1.78;75.10;96951.67;109138;1267;22495;-83
2023/02/27 00:34:26;;;;;;;;;;;;;;;-1.78;74.75;96950.39;109123;1273;24238;-83
2023/02/27 00:36:56;;;;;;;;;;;;;;;-1.82;74.50;96952.90;109060;1275;23661;-83
2023/02/27 00:39:26;;;;;;;;;;;;;;;-1.88;74.58;96949.70;109139;1267;22512;-82
2023/02/27 00:41:55;;;;;;;;;;;;;;;-1.90;75.01;96952.64;109048;1274;77074;-82
2023/02/27 00:44:25;;;;;;;;;;;;;;;-1.92;75.04;96949.72;109082;1274;22599;-83
2023/02/27 00:46:54;;;;;;;;;;;;;;;-1.97;75.14;96943.93;109065;1271;22531;-83
2023/02/27 00:49:24;;;;;;;;;;;;;;;-2.03;75.30;96937.41;109105;1273;22502;-82
2023/02/27 00:51:53;;;;;;;;;;;;;;;-2.04;75.40;96937.73;109082;1274;22601;-82
2023/02/27 00:54:23;;;;;;;;;;;;;;;-2.03;75.41;96936.57;109097;1274;25243;-82
2023/02/27 00:56:52;;;;;;;;;;;;;;;-1.98;75.65;96938.91;109101;1274;22573;-82
2023/02/27 00:59:21;;;;;;;;;;;;;;;-1.93;75.72;96940.55;109065;1273;22555;-82
2023/02/27 01:01:51;;;;;;;;;;;;;;;-1.91;75.95;96933.85;109088;1273;33529;-82
2023/02/27 01:04:20;;;;;;;;;;;;;;;-1.91;75.95;96934.38;109112;1273;22525;-82
2023/02/27 01:06:50;;;;;;;;;;;;;;;-1.94;75.67;96933.40;109098;1267;22587;-82
2023/02/27 01:09:19;;;;;;;;;;;;;;;-1.98;75.66;96933.99;109090;1274;23157;-82
2023/02/27 01:11:48;;;;;;;;;;;;;;;-2.00;75.69;96931.47;109024;1266;65333;-82
2023/02/27 01:14:18;;;;;;;;;;;;;;;-2.01;76.15;96926.59;109078;1266;22499;-82
2023/02/27 01:16:47;;;;;;;;;;;;;;;-2.03;76.12;96926.46;109064;1273;22522;-82
2023/02/27 01:19:16;;;;;;;;;;;;;;;-2.01;76.17;96928.11;109107;1272;22502;-82
2023/02/27 01:21:46;;;;;;;;;;;;;;;-2.00;76.04;96928.43;109078;1273;22526;-82
2023/02/27 01:24:15;;;;;;;;;;;;;;;-2.03;75.82;96928.38;109100;1273;24188;-82
2023/02/27 01:26:45;;;;;;;;;;;;;;;-2.02;76.25;96931.18;109122;1273;22523;-82
2023/02/27 01:29:15;;;;;;;;;;;;;;;-2.02;76.15;96929.81;109092;1267;23817;-82
2023/02/27 01:31:44;;;;;;;;;;;;;;;-2.02;76.35;96928.42;109076;1273;22531;-82
2023/02/27 01:34:14;;;;;;;;;;;;;;;-2.06;76.44;96926.24;109078;1273;22502;-82
2023/02/27 01:36:43;;;;;;;;;;;;;;;-2.11;76.74;96927.37;109079;1270;22525;-82
2023/02/27 01:39:12;;;;;;;;;;;;;;;-2.16;77.00;96927.26;109089;1267;22519;-81
2023/02/27 01:41:42;;;;;;;;;;;;;;;-2.18;77.08;96932.88;109076;1274;24209;-82
2023/02/27 01:44:13;;;;;;;;;;;;;;;-2.19;77.55;96929.88;109054;1274;22505;-82
2023/02/27 01:46:42;;;;;;;;;;;;;;;-2.19;77.64;96930.88;109082;1273;23770;-82
2023/02/27 01:49:15;;;;;;;;;;;;;;;-2.20;77.84;96924.60;109078;1273;25249;-83
2023/02/27 01:51:46;;;;;;;;;;;;;;;-2.23;77.88;96925.58;109100;1273;22515;-82
2023/02/27 01:54:17;;;;;;;;;;;;;;;-2.23;78.35;96931.63;109065;1273;24405;-82
2023/02/27 01:56:47;;;;;;;;;;;;;;;-2.21;78.23;96928.98;109087;1273;22508;-82
2023/02/27 01:59:18;;;;;;;;;;;;;;;-2.21;78.28;96930.98;109087;1273;22599;-82
2023/02/27 02:01:48;;;;;;;;;;;;;;;-2.21;78.37;96937.82;109057;1273;22498;-83
2023/02/27 02:04:22;;;;;;;;;;;;;;;-2.20;78.65;96938.86;109080;1273;22501;-82
2023/02/27 02:06:55;;;;;;;;;;;;;;;-2.18;78.75;96943.42;109088;1267;24245;-82
2023/02/27 02:09:25;;;;;;;;;;;;;;;-2.18;79.09;96943.42;109164;1271;22514;-82
2023/02/27 02:11:55;;;;;;;;;;;;;;;-2.18;79.03;96941.23;109078;1269;22537;-82
2023/02/27 02:14:24;;;;;;;;;;;;;;;-2.19;78.93;96945.42;109131;1269;22501;-82
2023/02/27 02:17:04;;;;;;;;;;;;;;;-2.18;79.19;96947.30;109107;1273;22626;-82
2023/02/27 02:19:43;;;;;;;;;;;;;;;-2.19;79.23;96952.70;109103;1273;25405;-82
2023/02/27 02:22:26;;;;;;;;;;;;;;;-2.20;79.18;96955.77;109069;1273;22553;-82
2023/02/27 02:25:11;;;;;;;;;;;;;;;-2.20;79.26;96957.92;109067;1267;24209;-82
2023/02/27 02:27:53;;;;;;;;;;;;;;;-2.20;79.14;96959.40;109118;1273;22514;-82
2023/02/27 02:30:32;;;;;;;;;;;;;;;-2.20;79.31;96959.92;109081;1266;22515;-82
2023/02/27 02:33:20;;;;;;;;;;;;;;;-2.20;79.26;96958.80;109074;1267;26221;-82
2023/02/27 02:36:16;;;;;;;;;;;;;;;-2.20;79.49;96960.52;109094;1274;22515;-82
2023/02/27 02:38:59;;;;;;;;;;;;;;;-2.18;79.58;96957.98;109088;1274;22770;-82
2023/02/27 02:41:32;;;;;;;;;;;;;;;-2.16;79.59;96955.86;109107;1274;22502;-82
2023/02/27 02:44:05;;;;;;;;;;;;;;;-2.16;79.69;96958.77;109098;1259;22595;-82
2023/02/27 02:46:41;;;;;;;;;;;;;;;-2.16;79.67;96957.42;109101;1273;22573;-82
2023/02/27 02:49:17;;;;;;;;;;;;;;;-2.17;79.60;96956.73;109122;1273;22583;-82
2023/02/27 02:51:50;;;;;;;;;;;;;;;-2.16;79.73;96965.17;109057;1270;22495;-82
2023/02/27 02:54:25;;;;;;;;;;;;;;;-2.15;79.76;96968.10;109126;1273;22501;-81
2023/02/27 02:57:00;;;;;;;;;;;;;;;-2.11;79.82;96974.96;109054;1273;22524;-82
2023/02/27 02:59:32;;;;;;;;;;;;;;;-2.12;79.88;96977.79;109114;1270;23842;-82
2023/02/27 03:02:03;;;;;;;;;;;;;;;-2.11;79.97;96982.54;109114;1270;22574;-82
2023/02/27 03:04:35;;;;;;;;;;;;;;;-2.10;79.92;96984.66;109102;1273;22495;-82
2023/02/27 03:07:09;;;;;;;;;;;;;;;-2.10;79.83;96982.45;109001;1273;130487;-82
2023/02/27 03:09:41;;;;;;;;;;;;;;;-2.10;79.81;96988.53;109096;1273;22502;-82
2023/02/27 03:12:12;;;;;;;;;;;;;;;-2.10;79.90;96988.05;109091;1273;22935;-82
2023/02/27 03:14:45;;;;;;;;;;;;;;;-2.10;79.97;96992.13;109104;1274;24167;-82
2023/02/27 03:17:19;;;;;;;;;;;;;;;-2.10;79.96;96997.29;109087;1262;22873;-82
2023/02/27 03:19:53;;;;;;;;;;;;;;;-2.10;79.82;96996.24;109136;1273;22610;-82
2023/02/27 03:22:26;;;;;;;;;;;;;;;-2.12;79.65;96995.48;109078;1273;22498;-82
2023/02/27 03:24:58;;;;;;;;;;;;;;;-2.15;79.70;97000.34;109067;1273;22528;-82
2023/02/27 03:27:30;;;;;;;;;;;;;;;-2.14;79.92;97003.82;109085;1267;22512;-83
2023/02/27 03:30:03;;;;;;;;;;;;;;;-2.13;79.86;97008.91;109132;1273;24198;-83
2023/02/27 03:32:36;;;;;;;;;;;;;;;-2.13;79.95;97009.42;109002;1270;56604;-83
2023/02/27 03:35:07;;;;;;;;;;;;;;;-2.12;79.75;97013.86;109144;1273;22525;-83
2023/02/27 03:37:39;;;;;;;;;;;;;;;-2.14;79.84;97016.02;109143;1270;22583;-82
2023/02/27 03:40:15;;;;;;;;;;;;;;;-2.14;79.74;97020.00;109104;1270;23884;-82
2023/02/27 03:42:47;;;;;;;;;;;;;;;-2.14;79.91;97018.41;109060;1266;22519;-82
2023/02/27 03:45:21;;;;;;;;;;;;;;;-2.13;80.07;97024.69;109069;1273;22502;-83
2023/02/27 03:47:51;;;;;;;;;;;;;;;-2.14;80.06;97018.92;109094;1273;23658;-83
2023/02/27 03:50:21;;;;;;;;;;;;;;;-2.14;80.13;97020.96;109079;1273;23542;-83
2023/02/27 03:52:50;;;;;;;;;;;;;;;-2.13;80.31;97023.48;109066;1273;23884;-83
2023/02/27 03:55:21;;;;;;;;;;;;;;;-2.13;80.26;97026.21;109074;1273;22502;-83
2023/02/27 03:57:51;;;;;;;;;;;;;;;-2.13;80.14;97029.52;109062;1273;22495;-83
2023/02/27 04:00:21;;;;;;;;;;;;;;;-2.14;80.41;97036.27;109116;1273;22504;-83
2023/02/27 04:02:53;;;;;;;;;;;;;;;-2.15;80.47;97045.48;109063;1273;22520;-83
2023/02/27 04:05:22;;;;;;;;;;;;;;;-2.14;80.45;97051.29;109075;1273;22508;-83
2023/02/27 04:08:01;;;;;;;;;;;;;;;-2.13;80.58;97053.14;109084;1271;22516;-83
2023/02/27 04:10:39;;;;;;;;;;;;;;;-2.15;80.60;97054.73;109118;1267;22534;-83
2023/02/27 04:13:16;;;;;;;;;;;;;;;-2.16;80.90;97057.66;109063;1273;22509;-83
2023/02/27 04:15:59;;;;;;;;;;;;;;;-2.16;80.92;97064.10;109128;1273;22571;-83
2023/02/27 04:18:37;;;;;;;;;;;;;;;-2.18;81.00;97062.70;109117;1267;22519;-83
2023/02/27 04:21:08;;;;;;;;;;;;;;;-2.20;81.30;97066.27;109070;1273;22497;-83
2023/02/27 04:23:39;;;;;;;;;;;;;;;-2.19;81.18;97067.36;109088;1268;22627;-82
2023/02/27 04:26:15;;;;;;;;;;;;;;;-2.18;81.19;97067.41;109105;1273;22594;-83
2023/02/27 04:28:45;;;;;;;;;;;;;;;-2.19;81.51;97066.67;109104;1273;25393;-83
2023/02/27 04:31:18;;;;;;;;;;;;;;;-2.20;81.75;97067.27;109024;1268;22508;-83
2023/02/27 04:33:50;;;;;;;;;;;;;;;-2.21;81.80;97065.15;109060;1271;25075;-83
2023/02/27 04:36:24;;;;;;;;;;;;;;;-2.25;81.75;97065.80;109091;1267;22495;-83
2023/02/27 04:38:57;;;;;;;;;;;;;;;-2.26;81.99;97065.92;109090;1271;22537;-83
2023/02/27 04:41:29;;;;;;;;;;;;;;;-2.30;82.02;97069.25;109119;1271;22540;-83
2023/02/27 04:43:59;;;;;;;;;;;;;;;-2.30;82.25;97070.45;109071;1273;22512;-83
2023/02/27 04:46:31;;;;;;;;;;;;;;;-2.32;82.25;97076.39;109072;1269;22506;-83
2023/02/27 04:49:04;;;;;;;;;;;;;;;-2.35;82.25;97076.92;109119;1273;22527;-83
2023/02/27 04:51:36;;;;;;;;;;;;;;;-2.35;82.19;97075.09;109055;1270;22508;-82
2023/02/27 04:54:09;;;;;;;;;;;;;;;-2.35;82.43;97078.69;109103;1273;22502;-83
2023/02/27 04:56:41;;;;;;;;;;;;;;;-2.37;82.39;97080.27;109093;1273;23798;-83
2023/02/27 04:59:13;;;;;;;;;;;;;;;-2.37;82.44;97086.54;109104;1268;24911;-83
2023/02/27 05:01:46;;;;;;;;;;;;;;;-2.38;82.36;97089.96;109115;1273;23732;-82
2023/02/27 05:04:18;;;;;;;;;;;;;;;-2.39;82.40;97090.55;109107;1270;22505;-83
2023/02/27 05:06:49;;;;;;;;;;;;;;;-2.39;82.41;97091.09;109057;1273;22492;-83
2023/02/27 05:09:21;;;;;;;;;;;;;;;-2.40;82.39;97089.96;109118;1273;22523;-83
2023/02/27 05:11:54;;;;;;;;;;;;;;;-2.40;82.24;97092.36;109086;1273;22556;-82
2023/02/27 05:14:28;;;;;;;;;;;;;;;-2.40;82.35;97093.76;109095;1273;22736;-82
2023/02/27 05:17:01;;;;;;;;;;;;;;;-2.40;82.45;97094.92;109206;1273;22700;-83
2023/02/27 05:19:32;;;;;;;;;;;;;;;-2.40;82.49;97099.27;109102;1273;22517;-83
2023/02/27 05:22:05;;;;;;;;;;;;;;;-2.42;82.23;97098.48;109036;1266;23252;-82
2023/02/27 05:24:39;;;;;;;;;;;;;;;-2.43;82.34;97100.48;109088;1273;23768;-83
2023/02/27 05:27:23;;;;;;;;;;;;;;;-2.43;82.25;97104.80;109104;1271;22576;-83
2023/02/27 05:29:54;;;;;;;;;;;;;;;-2.41;82.48;97109.80;109128;1273;25339;-83
2023/02/27 05:32:29;;;;;;;;;;;;;;;-2.42;82.39;97108.00;109088;1271;25224;-82
2023/02/27 05:35:03;;;;;;;;;;;;;;;-2.43;82.37;97108.30;109141;1273;22498;-82
2023/02/27 05:37:34;;;;;;;;;;;;;;;-2.43;82.23;97108.70;109104;1269;23267;-83
2023/02/27 05:40:07;;;;;;;;;;;;;;;-2.42;82.36;97109.55;109126;1273;23743;-83
2023/02/27 05:42:39;;;;;;;;;;;;;;;-2.43;82.20;97106.75;109059;1273;43434;-83
2023/02/27 05:45:11;;;;;;;;;;;;;;;-2.43;82.18;97111.45;109085;1267;22495;-83
2023/02/27 05:47:43;;;;;;;;;;;;;;;-2.42;82.02;97118.06;109085;1273;22648;-83
2023/02/27 05:50:17;;;;;;;;;;;;;;;-2.41;82.07;97117.11;109102;1273;22501;-83
2023/02/27 05:52:48;;;;;;;;;;;;;;;-2.40;82.09;97121.51;109116;1273;33808;-82
2023/02/27 05:55:21;;;;;;;;;;;;;;;-2.40;82.04;97124.23;109087;1268;24241;-82
2023/02/27 05:57:52;;;;;;;;;;;;;;;-2.39;82.09;97120.66;109185;1273;23294;-83
2023/02/27 06:00:24;;;;;;;;;;;;;;;-2.38;81.98;97121.27;109120;1273;23657;-83
2023/02/27 06:02:54;;;;;;;;;;;;;;;-2.36;82.03;97127.48;109093;1273;22505;-82
2023/02/27 06:05:25;;;;;;;;;;;;;;;-2.34;81.96;97129.66;109132;1269;22614;-82
2023/02/27 06:07:55;;;;;;;;;;;;;;;-2.33;81.90;97129.54;109085;1273;22512;-82
2023/02/27 06:10:24;;;;;;;;;;;;;;;-2.31;81.82;97129.64;109110;1273;24322;-82
2023/02/27 06:12:54;;;;;;;;;;;;;;;-2.30;81.88;97133.24;109093;1273;65264;-82
2023/02/27 06:15:23;;;;;;;;;;;;;;;-2.26;82.11;97135.36;109125;1268;22501;-83
2023/02/27 06:17:53;;;;;;;;;;;;;;;-2.22;82.02;97138.93;109094;1273;22526;-82
2023/02/27 06:20:22;;;;;;;;;;;;;;;-2.20;81.89;97138.80;109089;1266;22494;-82
2023/02/27 06:22:52;;;;;;;;;;;;;;;-2.18;81.72;97138.96;109083;1273;22545;-82
2023/02/27 06:25:21;;;;;;;;;;;;;;;-2.17;81.55;97140.18;109059;1270;22509;-82
2023/02/27 06:27:52;;;;;;;;;;;;;;;-2.14;81.59;97139.73;109092;1269;23889;-83
2023/02/27 06:30:22;;;;;;;;;;;;;;;-2.09;81.70;97140.04;109149;1273;22776;-83
2023/02/27 06:32:51;;;;;;;;;;;;;;;-2.04;81.65;97141.38;109092;1267;23390;-82
2023/02/27 06:35:21;;;;;;;;;;;;;;;-2.00;81.83;97144.33;109122;1266;24441;-83
2023/02/27 06:37:50;;;;;;;;;;;;;;;-2.00;81.38;97144.13;109168;1273;24183;-82
2023/02/27 06:40:20;;;;;;;;;;;;;;;-1.99;81.11;97144.23;109126;1269;22495;-83
2023/02/27 06:42:49;;;;;;;;;;;;;;;-1.98;80.67;97150.30;109041;1272;67457;-82
2023/02/27 06:45:19;;;;;;;;;;;;;;;-1.97;80.52;97150.38;109117;1269;22504;-82
2023/02/27 06:47:48;;;;;;;;;;;;;;;-1.95;80.46;97157.03;109113;1273;22529;-82
2023/02/27 06:50:18;;;;;;;;;;;;;;;-1.92;80.48;97156.38;109107;1269;22677;-82
2023/02/27 06:52:47;;;;;;;;;;;;;;;-1.92;80.33;97157.05;109062;1269;22689;-82
2023/02/27 06:55:19;;;;;;;;;;;;;;;-1.90;80.19;97157.48;109100;1273;25238;-82
2023/02/27 06:57:49;;;;;;;;;;;;;;;-1.85;80.25;97161.42;109116;1273;25408;-82
2023/02/27 07:00:19;;;;;;;;;;;;;;;-1.82;80.04;97161.67;109059;1270;22517;-82
2023/02/27 07:02:49;;;;;;;;;;;;;;;-1.78;79.84;97167.58;109073;1262;22711;-82
2023/02/27 07:05:18;;;;;;;;;;;;;;;-1.75;80.10;97169.27;109084;1273;22764;-83
2023/02/27 07:07:48;;;;;;;;;;;;;;;-1.72;79.56;97172.45;109117;1268;22780;-82
2023/02/27 07:10:17;;;;;;;;;;;;;;;-1.68;79.78;97177.38;109106;1273;25396;-83
2023/02/27 07:12:47;;;;;;;;;;;;;;;-1.66;79.77;97177.84;109045;1271;74539;-83
2023/02/27 07:15:16;;;;;;;;;;;;;;;-1.67;79.38;97181.95;109086;1273;22637;-83
2023/02/27 07:17:46;;;;;;;;;;;;;;;-1.67;79.41;97183.67;109100;1273;24205;-83
2023/02/27 07:20:15;;;;;;;;;;;;;;;-1.66;79.23;97188.68;109122;1266;22510;-83
2023/02/27 07:22:45;;;;;;;;;;;;;;;-1.62;78.99;97189.98;109114;1269;22519;-83
2023/02/27 07:25:14;;;;;;;;;;;;;;;-1.59;79.18;97193.61;109122;1273;22561;-82
2023/02/27 07:27:45;;;;;;;;;;;;;;;-1.56;79.02;97196.27;109123;1273;25409;-83
2023/02/27 07:30:15;;;;;;;;;;;;;;;-1.52;78.95;97198.44;109038;1273;25930;-83
2023/02/27 07:32:44;;;;;;;;;;;;;;;-1.47;78.83;97201.83;109021;1268;56731;-83
2023/02/27 07:35:13;;;;;;;;;;;;;;;-1.42;79.26;97202.98;109086;1274;23971;-83
2023/02/27 07:37:43;;;;;;;;;;;;;;;-1.39;78.95;97203.30;109081;1273;23858;-83
2023/02/27 07:40:14;;;;;;;;;;;;;;;-1.38;78.75;97201.79;109126;1269;22492;-82
2023/02/27 07:42:43;;;;;;;;;;;;;;;-1.35;78.66;97202.05;109044;1273;72630;-82
2023/02/27 07:45:13;;;;;;;;;;;;;;;-1.34;78.52;97204.15;109140;1273;22492;-82
2023/02/27 07:47:42;;;;;;;;;;;;;;;-1.33;78.21;97206.55;109141;1271;22514;-82
2023/02/27 07:50:13;;;;;;;;;;;;;;;-1.35;78.21;97207.21;109050;1273;22806;-82
2023/02/27 07:52:42;;;;;;;;;;;;;;;-1.35;78.06;97207.98;109108;1274;22511;-82
2023/02/27 07:55:12;;;;;;;;;;;;;;;-1.30;78.19;97212.27;109075;1273;22495;-81
2023/02/27 07:57:42;;;;;;;;;;;;;;;-1.26;77.98;97216.34;109090;1273;22540;-82
2023/02/27 08:00:13;;;;;;;;;;;;;;;-1.23;77.72;97215.59;109084;1273;22489;-82
2023/02/27 08:02:42;;;;;;;;;;;;;;;-1.15;77.58;97219.73;109044;1269;22502;-81
2023/02/27 08:05:12;;;;;;;;;;;;;;;-1.05;77.40;97221.56;109129;1262;22515;-82
2023/02/27 08:07:41;;;;;;;;;;;;;;;-0.95;77.17;97220.84;109118;1270;22502;-82
2023/02/27 08:10:12;;;;;;;;;;;;;;;-0.86;77.04;97221.65;109111;1268;22517;-81
2023/02/27 08:12:41;;;;;;;;;;;;;;;-0.74;76.90;97219.40;109071;1273;61203;-82
2023/02/27 08:15:11;;;;;;;;;;;;;;;-0.63;76.61;97215.95;109142;1274;23469;-82
2023/02/27 08:17:41;;;;;;;;;;;;;;;-0.53;76.65;97215.39;109134;1273;23171;-82
2023/02/27 08:20:12;;;;;;;;;;;;;;;-0.46;76.38;97209.77;109088;1266;25269;-81
2023/02/27 08:22:42;;;;;;;;;;;;;;;-0.45;76.14;97215.70;109094;1270;24196;-82
2023/02/27 08:25:12;;;;;;;;;;;;;;;-0.40;75.80;97216.26;109133;1273;23328;-82
2023/02/27 08:27:42;;;;;;;;;;;;;;;-0.41;75.81;97222.02;109084;1273;23284;-82
2023/02/27 08:30:13;;;;;;;;;;;;;;;-0.46;75.62;97224.08;109097;1273;23221;-82
2023/02/27 08:32:44;;;;;;;;;;;;;;;-0.57;75.42;97227.91;109065;1269;29357;-82
2023/02/27 08:35:13;;;;;;;;;;;;;;;-0.71;74.70;97232.07;109075;1270;22518;-82
2023/02/27 08:37:43;;;;;;;;;;;;;;;-0.79;75.24;97232.27;109097;1269;22587;-83
2023/02/27 08:40:13;;;;;;;;;;;;;;;-0.88;74.87;97236.65;109115;1273;22508;-82
2023/02/27 08:42:42;;;;;;;;;;;;;;;-0.95;75.11;97241.14;109136;1273;22610;-82
2023/02/27 08:45:12;;;;;;;;;;;;;;;-1.02;75.09;97243.08;109125;1274;22518;-82
2023/02/27 08:47:44;;;;;;;;;;;;;;;-1.08;75.01;97243.33;109086;1270;22494;-82
2023/02/27 08:50:13;;;;;;;;;;;;;;;-1.18;75.49;97247.12;109098;1273;22545;-82
2023/02/27 08:52:43;;;;;;;;;;;;;;;-1.31;75.36;97247.05;109060;1269;26095;-82
2023/02/27 08:55:12;;;;;;;;;;;;;;;-1.38;76.10;97250.08;109077;1269;22581;-82
2023/02/27 08:57:42;;;;;;;;;;;;;;;-1.44;76.20;97261.41;109139;1273;23830;-82
2023/02/27 09:00:14;;;;;;;;;;;;;;;-1.52;76.49;97270.32;109085;1270;22887;-82
2023/02/27 09:02:43;;;;;;;;;;;;;;;-1.48;76.70;97271.79;109072;1269;43583;-82
2023/02/27 09:05:13;;;;;;;;;;;;;;;-1.43;76.78;97276.02;109115;1273;22898;-82
2023/02/27 09:07:42;;;;;;;;;;;;;;;-1.29;76.50;97273.77;109109;1267;22571;-82
2023/02/27 09:10:13;;;;;;;;;;;;;;;-1.14;76.42;97274.20;109059;1273;22604;-83
2023/02/27 09:12:43;;;;;;;;;;;;;;;-0.98;76.22;97274.46;109070;1273;44565;-82
2023/02/27 09:15:12;;;;;;;;;;;;;;;-0.91;75.72;97276.19;109093;1273;22506;-82
2023/02/27 09:17:42;;;;;;;;;;;;;;;-0.86;75.60;97278.73;109105;1274;22539;-82
2023/02/27 09:20:13;;;;;;;;;;;;;;;-0.81;75.05;97279.88;109108;1266;22681;-82
2023/02/27 09:22:43;;;;;;;;;;;;;;;-0.72;74.82;97282.05;109031;1267;42796;-82
2023/02/27 09:25:13;;;;;;;;;;;;;;;-0.67;74.51;97281.52;109084;1267;22621;-82
2023/02/27 09:27:42;;;;;;;;;;;;;;;-0.65;74.13;97280.23;109109;1274;22506;-82
2023/02/27 09:30:13;;;;;;;;;;;;;;;-0.59;73.74;97282.85;109132;1273;22528;-82
2023/02/27 09:32:42;;;;;;;;;;;;;;;-0.58;73.10;97286.51;109055;1270;52231;-82
2023/02/27 09:35:12;;;;;;;;;;;;;;;-0.56;72.49;97292.96;109096;1266;22502;-82
2023/02/27 09:37:42;;;;;;;;;;;;;;;-0.57;71.87;97292.55;109118;1266;22480;-82
2023/02/27 09:40:19;;;;;;;;;;;;;;;-0.63;71.63;97290.73;109083;1273;22536;-82
2023/02/27 09:42:48;;;;;;;;;;;;;;;-0.66;71.26;97293.96;109066;1273;47416;-82
2023/02/27 09:45:22;;;;;;;;;;;;;;;-0.65;71.01;97297.41;109134;1274;22502;-82
2023/02/27 09:47:53;;;;;;;;;;;;;;;-0.63;70.02;97297.45;109093;1270;25221;-83
2023/02/27 09:50:29;;;;;;;;;;;;;;;-0.72;69.44;97299.75;109066;1273;22517;-82
2023/02/27 09:52:59;;;;;;;;;;;;;;;-0.62;69.29;97298.31;109043;1273;41626;-82
2023/02/27 09:55:32;;;;;;;;;;;;;;;-0.61;66.13;97303.84;109033;1273;22505;-82
2023/02/27 09:58:06;;;;;;;;;;;;;;;-0.46;67.99;97302.89;109075;1273;25207;-83
2023/02/27 10:00:44;;;;;;;;;;;;;;;-0.14;67.46;97300.91;109104;1273;23390;-83
2023/02/27 10:03:25;;;;;;;;;;;;;;;0.09;67.39;97303.77;109025;1266;49674;-83
2023/02/27 10:06:00;;;;;;;;;;;;;;;0.55;67.65;97302.63;109081;1269;22546;-83
2023/02/27 10:08:34;;;;;;;;;;;;;;;0.85;64.93;97300.03;109118;1266;22505;-83
2023/02/27 10:11:05;;;;;;;;;;;;;;;0.83;61.67;97298.66;109045;1271;42871;-83
2023/02/27 10:13:42;;;;;;;;;;;;;;;0.66;62.63;97295.83;109114;1269;22520;-83
2023/02/27 10:16:13;;;;;;;;;;;;;;;0.73;61.15;97304.13;109136;1273;25853;-84
2023/02/27 10:18:48;;;;;;;;;;;;;;;0.40;59.03;97302.47;109097;1274;22749;-84
2023/02/27 10:21:21;;;;;;;;;;;;;;;-0.01;58.58;97302.64;109039;1273;41609;-84
2023/02/27 10:23:54;;;;;;;;;;;;;;;-0.14;58.62;97308.41;109102;1273;24248;-83
2023/02/27 10:26:26;;;;;;;;;;;;;;;-0.37;57.96;97306.28;109088;1273;23884;-84
2023/02/27 10:28:56;;;;;;;;;;;;;;;-0.54;57.43;97306.52;109083;1274;22544;-84
2023/02/27 10:31:28;;;;;;;;;;;;;;;-0.60;58.48;97307.21;109058;1269;37734;-83
2023/02/27 10:33:57;;;;;;;;;;;;;;;-0.52;59.52;97308.31;109066;1274;22582;-83
2023/02/27 10:36:28;;;;;;;;;;;;;;;-0.45;59.66;97310.95;109112;1274;22541;-84
2023/02/27 10:38:59;;;;;;;;;;;;;;;-0.37;61.15;97306.35;109075;1266;23664;-83
2023/02/27 10:41:29;;;;;;;;;;;;;;;-0.20;62.10;97307.66;109032;1274;51751;-83
2023/02/27 10:44:00;;;;;;;;;;;;;;;-0.07;62.23;97308.75;109068;1270;25248;-83
2023/02/27 10:46:31;;;;;;;;;;;;;;;-0.02;61.88;97307.09;109111;1272;22595;-83
2023/02/27 10:49:04;;;;;;;;;;;;;;;-0.06;61.64;97311.20;109108;1271;22539;-83
2023/02/27 10:51:35;;;;;;;;;;;;;;;-0.12;62.10;97314.28;109069;1273;33430;-83
2023/02/27 10:54:20;;;;;;;;;;;;;;;-0.21;61.45;97310.93;109087;1273;22597;-82
2023/02/27 10:56:51;;;;;;;;;;;;;;;-0.23;61.38;97310.80;109096;1272;22505;-83
2023/02/27 10:59:22;;;;;;;;;;;;;;;-0.18;61.96;97312.66;109125;1270;22886;-83
2023/02/27 11:01:52;;;;;;;;;;;;;;;-0.11;61.79;97305.10;109133;1269;38081;-83
2023/02/27 11:04:26;;;;;;;;;;;;;;;-0.04;60.98;97309.20;109085;1273;22527;-83
2023/02/27 11:06:56;;;;;;;;;;;;;;;-0.13;60.66;97309.78;109088;1269;22597;-83
2023/02/27 11:09:27;;;;;;;;;;;;;;;-0.13;60.71;97309.83;109072;1271;22978;-83
2023/02/27 11:12:09;;;;;;;;;;;;;;;-0.06;60.99;97313.84;109099;1269;29540;-83
2023/02/27 11:14:48;;;;;;;;;;;;;;;-0.06;61.37;97309.96;109108;1273;22502;-83
2023/02/27 11:17:22;;;;;;;;;;;;;;;0.16;62.43;97309.89;109100;1272;25406;-84
2023/02/27 11:19:52;;;;;;;;;;;;;;;0.35;62.02;97307.27;109080;1270;22575;-84
2023/02/27 11:22:23;;;;;;;;;;;;;;;0.41;61.42;97307.01;109051;1272;40463;-84
2023/02/27 11:25:09;;;;;;;;;;;;;;;0.36;61.79;97304.75;109079;1273;22954;-84
2023/02/27 11:27:38;;;;;;;;;;;;;;;0.44;62.63;97303.13;109104;1273;22568;-84
2023/02/27 11:30:21;;;;;;;;;;;;;;;0.57;62.87;97303.20;109084;1273;22555;-84
2023/02/27 11:32:51;;;;;;;;;;;;;;;0.63;62.36;97307.44;109120;1274;36754;-84
2023/02/27 11:35:23;;;;;;;;;;;;;;;0.50;61.12;97309.77;109164;1266;22582;-84
2023/02/27 11:37:53;;;;;;;;;;;;;;;0.25;61.14;97308.52;109103;1274;22501;-84
2023/02/27 11:40:27;;;;;;;;;;;;;;;0.07;61.08;97307.25;109063;1273;22994;-84
2023/02/27 11:42:58;;;;;;;;;;;;;;;-0.10;61.20;97307.59;109012;1271;72427;-84
2023/02/27 11:45:32;;;;;;;;;;;;;;;-0.11;62.32;97309.39;109109;1274;22510;-84
2023/02/27 11:48:08;;;;;;;;;;;;;;;-0.02;62.57;97305.88;109089;1274;25045;-84
2023/02/27 11:50:43;;;;;;;;;;;;;;;0.03;62.64;97310.29;109094;1274;22624;-83
2023/02/27 11:53:29;;;;;;;;;;;;;;;0.00;61.80;97310.48;109096;1266;31470;-84
2023/02/27 11:56:01;;;;;;;;;;;;;;;-0.03;63.00;97308.60;108996;1275;22665;-83
2023/02/27 11:58:37;;;;;;;;;;;;;;;0.00;63.19;97306.11;108999;1275;22588;-83
2023/02/27 12:01:09;;;;;;;;;;;;;;;0.07;63.69;97305.52;108991;1275;37125;-84
2023/02/27 12:03:40;;;;;;;;;;;;;;;0.16;63.82;97301.12;108990;1275;23223;-84
2023/02/27 12:06:15;;;;;;;;;;;;;;;0.21;63.67;97304.54;108971;1275;24222;-83
2023/02/27 12:08:48;;;;;;;;;;;;;;;0.26;63.97;97301.90;108962;1275;22497;-84
2023/02/27 12:11:22;;;;;;;;;;;;;;;0.30;64.06;97306.70;108945;1266;55251;-83
2023/02/27 12:13:54;;;;;;;;;;;;;;;0.21;63.16;97305.19;108944;1271;22587;-83
2023/02/27 12:16:28;;;;;;;;;;;;;;;0.05;63.20;97308.63;108968;1275;22529;-83
2023/02/27 12:18:58;;;;;;;;;;;;;;;0.06;63.75;97308.21;109000;1275;23154;-83
2023/02/27 12:21:30;;;;;;;;;;;;;;;0.17;64.18;97306.48;108954;1271;23485;-84
2023/02/27 12:24:02;;;;;;;;;;;;;;;0.35;64.45;97306.75;109012;1271;23971;-83
2023/02/27 12:26:33;;;;;;;;;;;;;;;0.53;64.56;97306.08;109001;1269;22742;-83
2023/02/27 12:29:05;;;;;;;;;;;;;;;0.72;65.03;97309.77;109009;1275;22624;-84
2023/02/27 12:31:42;;;;;;;;;;;;;;;0.94;64.99;97313.06;108994;1275;23002;-83
2023/02/27 12:34:17;;;;;;;;;;;;;;;1.04;64.44;97315.11;108993;1275;22548;-83
2023/02/27 12:36:47;;;;;;;;;;;;;;;1.13;64.59;97316.41;108946;1275;22973;-83
2023/02/27 12:39:19;;;;;;;;;;;;;;;1.15;64.07;97316.29;108976;1271;24292;-83
2023/02/27 12:42:05;;;;;;;;;;;;;;;1.08;63.92;97318.64;108956;1269;24005;-84
2023/02/27 12:44:47;;;;;;;;;;;;;;;1.03;64.18;97325.71;108981;1269;22505;-84
2023/02/27 12:47:22;;;;;;;;;;;;;;;0.99;64.23;97322.34;109009;1275;22878;-83
2023/02/27 12:49:55;;;;;;;;;;;;;;;0.90;64.11;97324.17;108980;1275;22513;-84
2023/02/27 12:52:30;;;;;;;;;;;;;;;0.85;64.04;97324.26;108975;1275;22555;-83
2023/02/27 12:55:06;;;;;;;;;;;;;;;0.77;63.86;97323.95;109062;1272;25455;-84
2023/02/27 12:57:46;;;;;;;;;;;;;;;0.70;64.34;97325.14;109049;1274;22621;-83
2023/02/27 13:00:18;;;;;;;;;;;;;;;0.65;64.23;97328.86;109108;1266;22517;-83
2023/02/27 13:02:50;;;;;;;;;;;;;;;0.61;64.66;97335.24;109071;1272;22553;-84